Main page
METAR-TAF:

METAR-TAF

Airports :

Halli Airport

Jämsä, Finland

latitude: 61-51N, longitude: 024-48E, elevation: 143 m

Current weather observation

The report was made 33 minutes ago, at 03:50 UTC
Wind 6 kt from the West
Temperature -7°C
Humidity 79%
Pressure 997 hPa
Visibility 10 km or more
no clouds below 1500 m and no cumulonimbus

METAR: EFHA 250350Z AUTO 27006KT CAVOK M07/M10 Q0997

Time: 06:23 (04:23 UTC)

Forecast

The report was made 1 hour and 54 minutes ago, at 02:29 UTC
Forecast valid from 25 at 03 UTC to 25 at 12 UTC
Wind 6 kt from the West/Northwest
Visibility 10 km or more
no clouds below 1500 m and no cumulonimbus

TAF: EFHA 250229Z 2503/2512 29006KT CAVOK

Weather observations and forecasts of more than 4000 airports (METAR and TAF reports).

The available stations are represented by yellow and red dots on the map.

Hover mouse over dot to see the name of the station.

Then click to see weather observations and forecasts.

To change the map : click on the green buttons with a black cross to zoom in, on the green button with a dash to zoom out, or on the green arrows for adjacent maps.


METAR-TAF: